createdAt,value
2018-06-10T00:00:08.403Z,2.13
2018-06-10T00:02:36.572Z,2.50
2018-06-10T00:05:04.812Z,2.33
2018-06-10T00:07:33.050Z,2.67
2018-06-10T00:10:01.210Z,2.17
2018-06-10T00:12:29.182Z,2.23
2018-06-10T00:14:57.274Z,2.33
2018-06-10T00:17:25.420Z,2.40
2018-06-10T00:19:53.668Z,2.37
2018-06-10T00:22:21.760Z,2.30
2018-06-10T00:24:49.844Z,2.27
2018-06-10T00:27:17.928Z,2.30
2018-06-10T00:29:45.999Z,2.17
2018-06-10T00:32:14.116Z,2.40
2018-06-10T00:34:42.239Z,2.37
2018-06-10T00:37:10.321Z,2.40
2018-06-10T00:39:38.493Z,2.10
2018-06-10T00:42:06.664Z,2.13
2018-06-10T00:44:34.811Z,2.30
2018-06-10T00:47:02.947Z,2.20
2018-06-10T00:49:31.197Z,2.53
2018-06-10T00:51:59.531Z,2.10
2018-06-10T00:54:27.682Z,2.30
2018-06-10T00:56:55.824Z,2.40
2018-06-10T00:59:23.876Z,2.40
2018-06-10T01:01:52.069Z,2.40
2018-06-10T01:04:20.224Z,2.37
2018-06-10T01:06:48.295Z,2.60
2018-06-10T01:09:16.384Z,2.47
2018-06-10T01:11:44.440Z,2.30
2018-06-10T01:14:12.523Z,2.07
2018-06-10T01:16:40.478Z,2.10
2018-06-10T01:19:08.597Z,2.40
2018-06-10T01:21:36.716Z,2.23
2018-06-10T01:24:04.880Z,2.50
2018-06-10T01:26:38.533Z,2.70
2018-06-10T01:29:06.711Z,2.30
2018-06-10T01:31:34.815Z,2.70
2018-06-10T01:34:02.969Z,2.77
2018-06-10T01:36:31.087Z,2.20
2018-06-10T01:38:59.240Z,2.77
2018-06-10T01:41:27.357Z,2.40
2018-06-10T01:43:55.569Z,2.60
2018-06-10T01:46:23.527Z,2.60
2018-06-10T01:48:51.616Z,2.37
2018-06-10T01:51:19.692Z,2.50
2018-06-10T01:53:47.776Z,2.27
2018-06-10T01:56:15.926Z,2.60
2018-06-10T01:58:44.037Z,2.53
2018-06-10T02:01:12.109Z,2.60
2018-06-10T02:03:40.229Z,3.00
2018-06-10T02:06:08.356Z,2.60
2018-06-10T02:08:36.696Z,2.63
2018-06-10T02:11:04.802Z,2.47
2018-06-10T02:13:32.947Z,2.60
2018-06-10T02:16:01.109Z,2.80
2018-06-10T02:18:29.208Z,2.47
2018-06-10T02:20:57.357Z,2.67
2018-06-10T02:23:25.295Z,2.57
2018-06-10T02:25:53.348Z,2.80
2018-06-10T02:28:21.464Z,2.47
2018-06-10T02:30:49.556Z,2.40
2018-06-10T02:33:17.640Z,2.50
2018-06-10T02:35:45.724Z,2.33
2018-06-10T02:38:13.784Z,2.37
2018-06-10T02:40:41.880Z,2.40
2018-06-10T02:43:09.998Z,2.37
2018-06-10T02:45:38.125Z,2.50
2018-06-10T02:48:06.373Z,2.40
2018-06-10T02:50:34.485Z,2.40
2018-06-10T02:53:02.614Z,2.70
2018-06-10T02:55:30.778Z,2.47
2018-06-10T02:57:58.923Z,2.40
2018-06-10T03:00:27.062Z,2.60
2018-06-10T03:02:55.128Z,2.77
2018-06-10T03:05:23.202Z,2.63
2018-06-10T03:07:51.344Z,2.57
2018-06-10T03:10:19.352Z,2.70
2018-06-10T03:12:47.319Z,2.87
2018-06-10T03:15:15.382Z,2.40
2018-06-10T03:17:43.477Z,2.57
2018-06-10T03:20:11.592Z,2.60
2018-06-10T03:22:39.693Z,2.50
2018-06-10T03:25:07.841Z,2.67
2018-06-10T03:27:35.992Z,2.80
2018-06-10T03:30:04.107Z,2.07
2018-06-10T03:32:32.256Z,2.50
2018-06-10T03:35:00.442Z,2.40
2018-06-10T03:37:28.661Z,2.50
2018-06-10T03:39:56.781Z,2.50
2018-06-10T03:42:24.877Z,2.70
2018-06-10T03:44:52.952Z,2.57
2018-06-10T03:47:21.028Z,2.57
2018-06-10T03:49:49.097Z,2.60
2018-06-10T03:52:17.164Z,2.60
2018-06-10T03:54:45.236Z,2.80
2018-06-10T03:57:13.306Z,2.63
2018-06-10T03:59:41.389Z,2.27
2018-06-10T04:02:09.548Z,2.40
2018-06-10T04:04:37.682Z,2.47
2018-06-10T04:07:05.811Z,2.37
2018-06-10T04:09:33.948Z,2.60
2018-06-10T04:12:02.058Z,2.60
2018-06-10T04:14:30.241Z,2.80
2018-06-10T04:16:58.517Z,2.57
2018-06-10T04:19:26.628Z,2.50
2018-06-10T04:21:54.716Z,2.70
2018-06-10T04:24:22.788Z,2.57
2018-06-10T04:26:50.905Z,2.20
2018-06-10T04:29:18.984Z,2.40
2018-06-10T04:31:47.105Z,2.40
2018-06-10T04:34:15.199Z,2.70
2018-06-10T04:36:43.311Z,2.73
2018-06-10T04:39:11.430Z,2.50
2018-06-10T04:41:39.532Z,2.47
2018-06-10T04:44:07.669Z,2.70
2018-06-10T04:46:35.820Z,2.60
2018-06-10T04:49:03.937Z,2.40
2018-06-10T04:51:32.112Z,2.70
2018-06-10T04:54:00.320Z,2.60
2018-06-10T04:56:28.489Z,2.63
2018-06-10T04:58:56.572Z,2.50
2018-06-10T05:01:24.737Z,2.50
2018-06-10T05:03:52.899Z,2.80
2018-06-10T05:06:21.012Z,2.73
2018-06-10T05:08:49.089Z,2.57
2018-06-10T05:11:17.184Z,2.60
2018-06-10T05:13:45.319Z,2.70
2018-06-10T05:16:13.450Z,2.70
2018-06-10T05:18:41.524Z,2.50
2018-06-10T05:21:09.641Z,2.60
2018-06-10T05:23:37.716Z,2.47
2018-06-10T05:26:05.811Z,2.90
2018-06-10T05:28:34.100Z,2.80
2018-06-10T05:31:02.226Z,2.60
2018-06-10T05:33:30.175Z,2.83
2018-06-10T05:35:58.306Z,2.80
2018-06-10T05:38:26.482Z,2.60
2018-06-10T05:40:54.419Z,2.50
2018-06-10T05:43:22.492Z,2.60
2018-06-10T05:45:50.576Z,2.70
2018-06-10T05:48:18.647Z,2.60
2018-06-10T05:50:46.760Z,2.70
2018-06-10T05:53:14.856Z,2.63
2018-06-10T05:55:42.926Z,2.30
2018-06-10T05:58:11.021Z,2.40
2018-06-10T06:00:39.216Z,2.60
2018-06-10T06:03:07.401Z,2.53
2018-06-10T06:05:35.525Z,2.77
2018-06-10T06:08:03.668Z,2.50
2018-06-10T06:10:31.832Z,2.50
2018-06-10T06:13:00.186Z,2.27
2018-06-10T06:15:28.381Z,2.80
2018-06-10T06:17:56.501Z,2.53
2018-06-10T06:20:24.580Z,2.70
2018-06-10T06:22:52.660Z,2.73
2018-06-10T06:25:20.728Z,2.70
2018-06-10T06:27:48.792Z,2.73
2018-06-10T06:30:16.980Z,2.97
2018-06-10T06:32:45.053Z,2.60
2018-06-10T06:35:13.148Z,2.60
2018-06-10T06:37:41.224Z,3.00
2018-06-10T06:40:09.333Z,2.67
2018-06-10T06:42:37.426Z,2.57
2018-06-10T06:45:05.709Z,2.60
2018-06-10T06:47:33.818Z,2.67
2018-06-10T06:50:01.962Z,2.70
2018-06-10T06:52:30.124Z,2.63
2018-06-10T06:54:58.244Z,2.67
2018-06-10T06:57:26.427Z,2.60
2018-06-10T06:59:54.526Z,2.50
2018-06-10T07:02:22.801Z,2.70
2018-06-10T07:04:50.981Z,2.60
2018-06-10T07:07:19.061Z,2.70
2018-06-10T07:09:47.191Z,2.77
2018-06-10T07:12:15.271Z,2.67
2018-06-10T07:14:43.481Z,2.80
2018-06-10T07:17:11.609Z,3.07
2018-06-10T07:19:39.722Z,2.90
2018-06-10T07:22:07.892Z,2.57
2018-06-10T07:24:35.965Z,3.00
2018-06-10T07:27:04.143Z,2.93
2018-06-10T07:29:32.223Z,3.30
2018-06-10T07:32:00.367Z,2.83
2018-06-10T07:34:28.468Z,2.97
2018-06-10T07:36:56.564Z,3.00
2018-06-10T07:39:24.624Z,3.20
2018-06-10T07:41:52.734Z,3.10
2018-06-10T07:44:20.660Z,3.10
2018-06-10T07:46:48.792Z,3.10
2018-06-10T07:49:16.876Z,3.27
2018-06-10T07:51:45.052Z,3.27
2018-06-10T07:54:13.156Z,2.87
2018-06-10T07:56:41.228Z,3.40
2018-06-10T07:59:09.384Z,3.30
2018-06-10T08:01:37.609Z,3.00
2018-06-10T08:04:05.853Z,3.30
2018-06-10T08:06:33.988Z,3.30
2018-06-10T08:09:01.880Z,3.73
2018-06-10T08:11:30.018Z,3.07
2018-06-10T08:13:58.176Z,3.13
2018-06-10T08:16:26.299Z,3.40
2018-06-10T08:18:54.450Z,4.03
2018-06-10T08:21:22.535Z,3.70
2018-06-10T08:23:50.647Z,3.80
2018-06-10T10:57:39.937Z,7.43
2018-06-10T11:00:08.193Z,6.60
2018-06-10T11:02:36.430Z,7.53
2018-06-10T11:05:04.637Z,7.10
2018-06-10T11:07:32.985Z,6.00
2018-06-10T11:10:01.406Z,6.20
2018-06-10T11:12:29.639Z,6.20
2018-06-10T11:14:57.959Z,6.23
2018-06-10T11:17:26.388Z,6.40
2018-06-10T11:19:54.710Z,6.60
2018-06-10T11:22:23.060Z,6.33
2018-06-10T11:24:51.722Z,6.40
2018-06-10T11:27:19.856Z,6.77
2018-06-10T11:29:47.976Z,6.00
2018-06-10T11:32:16.092Z,5.70
2018-06-10T11:34:44.302Z,6.57
2018-06-10T11:37:12.370Z,6.77
2018-06-10T11:39:40.540Z,7.20
2018-06-10T11:42:08.673Z,6.93
2018-06-10T11:44:36.816Z,7.60
2018-06-10T11:47:05.443Z,7.93
2018-06-10T11:49:33.801Z,7.77
2018-06-10T11:52:02.021Z,7.17
2018-06-10T11:54:30.243Z,7.50
2018-06-10T11:56:58.694Z,7.70
2018-06-10T11:59:27.136Z,8.20
2018-06-10T12:01:55.436Z,7.77
2018-06-10T12:04:23.969Z,8.27
2018-06-10T12:12:38.584Z,7.40
2018-06-10T12:15:06.801Z,7.37
2018-06-10T12:17:35.217Z,7.00
2018-06-10T12:20:03.401Z,7.03
2018-06-10T12:22:31.848Z,6.67
2018-06-10T12:24:59.978Z,8.00
2018-06-10T12:27:28.270Z,7.50
2018-06-10T12:29:56.636Z,7.50
2018-06-10T12:32:25.012Z,7.13
2018-06-10T12:34:53.726Z,6.90
2018-06-10T12:37:21.884Z,7.23
2018-06-10T12:39:49.841Z,7.30
2018-06-10T12:42:17.992Z,6.90
2018-06-10T12:44:47.654Z,7.47
2018-06-10T12:47:15.811Z,7.43
2018-06-10T12:49:43.977Z,9.00
2018-06-10T12:52:12.160Z,7.63
2018-06-10T12:54:40.370Z,7.57
2018-06-10T12:57:08.447Z,7.20
2018-06-10T12:59:36.561Z,15.93
2018-06-10T13:02:04.932Z,11.17
2018-06-10T13:04:33.108Z,11.30
2018-06-10T13:07:01.396Z,8.80
2018-06-10T13:09:30.353Z,8.10
2018-06-10T13:11:59.164Z,8.10
2018-06-10T13:14:27.972Z,7.80
2018-06-10T13:16:56.144Z,7.57
2018-06-10T13:19:25.531Z,7.53
2018-06-10T13:21:54.198Z,7.20
2018-06-10T13:24:22.725Z,6.50
2018-06-10T13:26:50.900Z,6.73
2018-06-10T13:29:19.069Z,7.57
2018-06-10T13:31:47.224Z,6.13
2018-06-10T13:34:15.312Z,6.27
2018-06-10T13:36:43.401Z,6.20
2018-06-10T13:39:11.665Z,6.70
2018-06-10T13:41:39.816Z,6.43
2018-06-10T13:44:07.939Z,6.97
2018-06-10T13:46:36.061Z,6.40
2018-06-10T13:49:04.461Z,6.80
2018-06-10T13:51:32.750Z,7.20
2018-06-10T13:54:01.100Z,6.90
2018-06-10T13:56:29.219Z,6.63
2018-06-10T13:58:57.598Z,8.57
2018-06-10T14:01:25.833Z,8.33
2018-06-10T14:03:54.358Z,16.10
2018-06-10T14:06:22.873Z,10.43
2018-06-10T14:08:51.005Z,10.33
2018-06-10T14:11:19.112Z,10.33
2018-06-10T14:13:47.216Z,9.20
2018-06-10T14:16:15.647Z,8.77
2018-06-10T14:18:43.736Z,10.10
2018-06-10T14:21:11.852Z,9.67
2018-06-10T14:23:39.993Z,9.50
2018-06-10T14:26:08.097Z,9.50
2018-06-10T14:28:36.354Z,9.00
2018-06-10T14:31:04.515Z,10.00
2018-06-10T14:33:32.701Z,9.63
2018-06-10T14:36:00.743Z,9.40
2018-06-10T14:38:28.886Z,9.63
2018-06-10T14:40:56.824Z,9.60
2018-06-10T14:43:25.210Z,9.57
2018-06-10T14:45:53.490Z,9.57
2018-06-10T14:48:22.740Z,9.97
2018-06-10T14:50:51.051Z,10.17
2018-06-10T14:53:19.109Z,8.50
2018-06-10T14:55:47.200Z,9.77
2018-06-10T14:58:15.305Z,9.70
2018-06-10T15:00:43.417Z,10.33
2018-06-10T15:03:11.503Z,10.17
2018-06-10T15:05:39.633Z,19.17
2018-06-10T15:08:07.712Z,11.10
2018-06-10T15:10:35.818Z,9.63
2018-06-10T15:13:03.956Z,8.17
2018-06-10T15:15:32.133Z,7.33
2018-06-10T15:18:00.319Z,6.93
2018-06-10T15:20:28.547Z,6.77
2018-06-10T15:22:56.788Z,6.17
2018-06-10T15:25:25.044Z,6.63
2018-06-10T15:27:53.377Z,5.93
2018-06-10T15:30:21.614Z,6.37
2018-06-10T15:32:49.770Z,6.37
2018-06-10T15:35:17.857Z,6.10
2018-06-10T15:37:46.036Z,5.90
2018-06-10T15:40:14.266Z,5.30
2018-06-10T15:42:42.581Z,5.80
2018-06-10T15:45:10.439Z,5.07
2018-06-10T15:47:38.550Z,5.73
2018-06-10T15:50:06.645Z,5.60
2018-06-10T15:52:34.733Z,5.63
2018-06-10T15:55:03.144Z,5.30
2018-06-10T15:57:31.408Z,5.37
2018-06-10T16:00:02.941Z,5.33
2018-06-10T16:02:31.052Z,6.27
2018-06-10T16:04:59.800Z,5.80
2018-06-10T16:07:28.010Z,5.27
2018-06-10T16:09:59.064Z,6.30
2018-06-10T16:12:29.452Z,5.80
2018-06-10T16:14:58.270Z,5.70
2018-06-10T16:17:26.541Z,5.43
2018-06-10T16:19:55.980Z,5.40
2018-06-10T16:22:25.329Z,5.43
2018-06-10T16:24:57.651Z,6.47
2018-06-10T16:27:26.256Z,5.30
2018-06-10T16:29:55.334Z,5.63
2018-06-10T16:32:26.831Z,5.87
2018-06-10T16:34:55.795Z,5.77
2018-06-10T16:37:27.859Z,5.70
2018-06-10T16:39:56.421Z,5.77
2018-06-10T16:42:24.754Z,5.40
2018-06-10T16:44:53.303Z,5.23
2018-06-10T16:47:22.483Z,5.60
2018-06-10T16:49:50.760Z,5.53
2018-06-10T16:52:19.025Z,5.60
2018-06-10T16:54:47.498Z,5.47
2018-06-10T16:57:15.680Z,6.07
2018-06-10T16:59:44.825Z,6.10
2018-06-10T17:02:12.984Z,5.53
2018-06-10T17:04:41.204Z,6.13
2018-06-10T17:07:09.323Z,5.80
2018-06-10T17:09:37.460Z,5.60
2018-06-10T17:12:12.353Z,6.07
2018-06-10T17:14:40.610Z,6.10
2018-06-10T17:17:08.713Z,6.97
2018-06-10T17:19:36.906Z,5.70
2018-06-10T17:22:05.044Z,5.73
2018-06-10T17:24:33.339Z,6.23
2018-06-10T17:27:01.613Z,5.87
2018-06-10T17:29:30.978Z,5.43
2018-06-10T17:31:59.595Z,6.00
2018-06-10T17:34:27.883Z,5.83
2018-06-10T17:36:56.326Z,6.17
2018-06-10T17:39:25.182Z,6.37
2018-06-10T17:41:53.456Z,6.60
2018-06-10T17:44:21.878Z,6.10
2018-06-10T17:46:50.106Z,6.43
2018-06-10T17:49:18.291Z,6.50
2018-06-10T17:51:46.446Z,6.70
2018-06-10T17:54:14.638Z,6.30
2018-06-10T17:56:42.812Z,6.40
2018-06-10T17:59:11.002Z,6.00
2018-06-10T18:01:39.102Z,6.23
2018-06-10T18:04:07.221Z,6.17
2018-06-10T18:06:35.334Z,6.57
2018-06-10T18:09:03.918Z,6.27
2018-06-10T18:11:37.452Z,5.90
2018-06-10T18:14:09.703Z,6.60
2018-06-10T18:16:39.695Z,6.80
2018-06-10T18:19:11.228Z,6.27
2018-06-10T18:21:42.952Z,6.27
2018-06-10T18:24:12.082Z,6.23
2018-06-10T18:26:40.570Z,6.60
2018-06-10T18:29:11.359Z,6.50
2018-06-10T18:31:40.609Z,6.43
2018-06-10T18:34:11.083Z,6.00
2018-06-10T18:36:40.313Z,6.30
2018-06-10T18:39:10.675Z,6.60
2018-06-10T18:41:40.245Z,6.13
2018-06-10T18:44:09.220Z,6.53
2018-06-10T18:46:38.200Z,6.10
2018-06-10T18:49:07.782Z,5.93
2018-06-10T18:51:36.933Z,6.13
2018-06-10T18:54:06.714Z,6.10
2018-06-10T18:56:38.159Z,6.33
2018-06-10T18:59:06.700Z,6.30
2018-06-10T19:01:37.006Z,6.17
2018-06-10T19:04:06.857Z,6.33
2018-06-10T19:06:36.856Z,6.17
2018-06-10T19:09:08.844Z,5.90
2018-06-10T19:11:38.507Z,6.20
2018-06-10T19:14:09.144Z,6.13
2018-06-10T19:16:38.510Z,6.13
2018-06-10T19:19:09.384Z,6.33
2018-06-10T19:21:38.045Z,6.30
2018-06-10T19:24:08.329Z,6.60
2018-06-10T19:26:37.415Z,6.43
2018-06-10T19:29:07.599Z,6.30
2018-06-10T19:31:36.435Z,5.97
2018-06-10T19:34:06.263Z,6.07
2018-06-10T19:36:35.664Z,5.97
2018-06-10T19:39:06.845Z,6.07
2018-06-10T19:41:37.524Z,6.47
2018-06-10T19:44:08.043Z,6.63
2018-06-10T19:46:36.577Z,6.17
2018-06-10T19:49:04.704Z,6.07
2018-06-10T19:51:33.126Z,5.87
2018-06-10T19:54:01.574Z,6.47
2018-06-10T19:56:30.765Z,6.57
2018-06-10T19:59:00.294Z,6.67
2018-06-10T20:01:28.566Z,6.77
2018-06-10T20:03:56.798Z,6.90
2018-06-10T20:06:24.921Z,6.80
2018-06-10T20:08:53.161Z,6.60
2018-06-10T20:11:22.006Z,6.83
2018-06-10T20:13:50.135Z,6.87
2018-06-10T20:16:18.200Z,6.70
2018-06-10T20:18:46.954Z,6.77
2018-06-10T20:21:15.073Z,6.87
2018-06-10T20:23:43.213Z,7.10
2018-06-10T20:26:11.137Z,6.67
2018-06-10T20:28:39.280Z,7.17
2018-06-10T20:31:07.666Z,7.03
2018-06-10T20:33:35.636Z,7.00
2018-06-10T20:36:03.988Z,7.07
2018-06-10T20:38:32.777Z,7.03
2018-06-10T20:41:01.473Z,6.57
2018-06-10T20:43:29.652Z,6.83
2018-06-10T20:45:57.932Z,6.90
2018-06-10T20:48:26.129Z,6.17
2018-06-10T20:50:54.384Z,6.47
2018-06-10T20:53:23.097Z,6.73
2018-06-10T20:55:51.238Z,7.10
2018-06-10T20:58:19.388Z,6.63
2018-06-10T21:00:47.519Z,6.93
2018-06-10T21:03:18.351Z,6.90
2018-06-10T21:05:46.576Z,6.83
2018-06-10T21:08:14.708Z,7.00
2018-06-10T21:10:42.831Z,6.40
2018-06-10T21:13:10.909Z,7.50
2018-06-10T21:15:38.985Z,6.93
2018-06-10T21:18:07.060Z,7.13
2018-06-10T21:20:35.224Z,7.00
2018-06-10T21:23:03.351Z,7.10
2018-06-10T21:25:31.772Z,6.73
2018-06-10T21:27:59.969Z,6.90
2018-06-10T21:30:28.349Z,6.83
2018-06-10T21:32:56.607Z,6.90
2018-06-10T21:35:24.784Z,7.27
2018-06-10T21:37:52.969Z,7.33
2018-06-10T21:40:21.076Z,6.77
2018-06-10T21:42:49.211Z,6.60
2018-06-10T21:45:17.324Z,6.80
2018-06-10T21:47:45.387Z,6.80
2018-06-10T21:50:13.464Z,6.43
2018-06-10T21:52:41.651Z,6.83
2018-06-10T21:55:09.803Z,6.73
2018-06-10T21:57:37.902Z,6.60
2018-06-10T22:00:07.625Z,6.90
2018-06-10T22:02:35.711Z,6.47
2018-06-10T22:05:03.789Z,7.10
2018-06-10T22:07:31.938Z,6.57
2018-06-10T22:10:00.110Z,6.30
2018-06-10T22:12:28.261Z,6.40
2018-06-10T22:14:56.419Z,6.67
2018-06-10T22:17:24.626Z,6.53
2018-06-10T22:19:52.867Z,6.17
2018-06-10T22:22:20.949Z,6.77
2018-06-10T22:24:49.111Z,6.37
2018-06-10T22:27:17.354Z,6.67
2018-06-10T22:29:45.537Z,6.57
2018-06-10T22:32:13.633Z,6.57
2018-06-10T22:34:41.581Z,6.60
2018-06-10T22:37:09.720Z,6.50
2018-06-10T22:39:37.844Z,7.03
2018-06-10T22:42:05.929Z,6.70
2018-06-10T22:44:34.015Z,6.47
2018-06-10T22:47:02.160Z,6.37
2018-06-10T22:49:30.266Z,6.40
2018-06-10T22:51:58.419Z,6.50
2018-06-10T22:54:37.516Z,6.30
2018-06-10T22:57:06.304Z,6.20
2018-06-10T22:59:34.593Z,6.10
2018-06-10T23:02:02.897Z,6.17
2018-06-10T23:04:31.097Z,6.13
2018-06-10T23:06:59.269Z,6.50
2018-06-10T23:09:27.380Z,6.37
2018-06-10T23:11:55.506Z,6.47
2018-06-10T23:14:23.660Z,6.17
2018-06-10T23:16:51.852Z,6.10
2018-06-10T23:19:19.969Z,5.97
2018-06-10T23:21:48.051Z,5.80
2018-06-10T23:24:16.137Z,5.60
2018-06-10T23:26:44.281Z,5.97
2018-06-10T23:29:12.357Z,5.90
2018-06-10T23:31:40.441Z,5.70
2018-06-10T23:34:08.512Z,5.93
2018-06-10T23:36:36.580Z,6.23
2018-06-10T23:39:06.704Z,5.90
2018-06-10T23:41:35.100Z,5.97
2018-06-10T23:44:03.190Z,6.03
2018-06-10T23:46:31.465Z,5.83
2018-06-10T23:48:59.704Z,6.00
2018-06-10T23:51:27.876Z,5.80
2018-06-10T23:53:56.086Z,5.53
2018-06-10T23:56:24.376Z,5.63
2018-06-10T23:58:52.544Z,5.17
